Deerfield Beach, FL

2:27 AM EST on November 23, 2014 (GMT -0500)
Pompano Beach | Change Station
CLOSE
Current Station
Airport
Location: Pompano Beach,
Elevation: 20 ft
Nearby Weather Stations
Active Advisory: Coastal Hazard Statement

Elev 20 ft 26.25 °N, 80.11 °W | Updated 34 minutes ago

Partly Cloudy
Partly Cloudy
78 °F
Feels Like 78 °F
N
24
Wind Variable Wind from SE
Gusts 31 mph

Today
High -- | Low -- °F
--% Chance of Precip.
Yesterday
High -- | Low -- °F
Precip. -- in
6:45 AM 5:28 PM
New Moon, 1% visible
Pressure 30.05 in
Visibility 9.0 miles
Clouds Few 1900 ft
Scattered Clouds 2700 ft
Scattered Clouds 3400 ft
Dew Point 71 °F
Humidity 79%
Rainfall 0.00 in
Snow Depth Not available.
UV 0 out of 12
Pollen 4.30 out of 12
Air Quality Not available.
Flu Activity Not available.
METAR KPMP 230653Z 13021G27KT 9SM FEW019 SCT027 SCT034 26/22 A3004 RMK AO2 PK WND 13028/0610 SLP174 T02560217

More Conditions Fewer Conditions

Pressure 30.05 in
Visibility 9.0 miles
Clouds Few 1900 ft
Scattered Clouds 2700 ft
Scattered Clouds 3400 ft
Dew Point 71 °F
Humidity 79%
Rainfall 0.00 in
Snow Depth Not available.
UV 0 out of 12
Pollen 4.30 out of 12
Air Quality Not available.
Flu Activity Not available.
METAR KPMP 230653Z 13021G27KT 9SM FEW019 SCT027 SCT034 26/22 A3004 RMK AO2 PK WND 13028/0610 SLP174 T02560217

More Conditions Fewer Conditions

Nowcast | as of 1:38 am EST on November 23, 2014

Showers and windy to breezy conditions will continue across the Atlantic coast Metro areas. Most of the shower activity is across Palm Beach County from near Riviera Beach northward to Juno Beach. Occasional wind gusts from 25 to 30 mph are possible along the coastal zone.

×

10-Day Weather Forecast

Almanac

Astronomy

Nov. 23, 2014 Rise Set
Actual Time
Civil Twilight
Nautical Twilight
Astronomical Twilight
Moon
Length of Visible Light
Length of Day
Tomorrow will be .
, % of the Moon is Illuminated

Today's Extremes

State Highs State Lows

Community

WunderPhotos

Upload Photos

1,773,024 photos uploaded!

WunderBlogs® & News

Nearby

Air Quality

  Air Quality AQ Index Pollutant
Not available.

Snow Depth

Station Depth Elevation

Earthquake Activity

City Distance Mag. Time & Date
Minimum magnitude displayed is 2.5.

Coastal Water Temperatures

Place Temperature

Nearby Weather Stations